createdAt,value
2018-03-29T00:02:14.674Z,99303.66
2018-03-29T00:04:43.365Z,99303.92
2018-03-29T00:07:12.255Z,99296.58
2018-03-29T00:09:40.775Z,99291.86
2018-03-29T00:12:09.297Z,99290.89
2018-03-29T00:14:37.876Z,99283.62
2018-03-29T00:17:06.421Z,99280.71
2018-03-29T00:19:35.061Z,99281.80
2018-03-29T00:22:03.780Z,99282.09
2018-03-29T00:24:32.356Z,99269.09
2018-03-29T00:27:01.003Z,99265.52
2018-03-29T00:29:29.488Z,99263.41
2018-03-29T00:31:58.011Z,99255.80
2018-03-29T00:34:26.544Z,99257.41
2018-03-29T00:36:55.258Z,99263.34
2018-03-29T00:39:23.896Z,99258.48
2018-03-29T00:41:52.420Z,99256.73
2018-03-29T00:44:21.069Z,99253.34
2018-03-29T00:46:49.584Z,99250.89
2018-03-29T00:49:18.048Z,99254.40
2018-03-29T00:51:46.563Z,99252.20
2018-03-29T00:54:15.028Z,99261.14
2018-03-29T00:56:43.524Z,99255.13
2018-03-29T00:59:12.042Z,99249.70
2018-03-29T01:01:40.602Z,99255.02
2018-03-29T01:04:09.291Z,99254.81
2018-03-29T01:06:37.990Z,99243.81
2018-03-29T01:09:06.800Z,99218.79
2018-03-29T01:11:35.320Z,99215.16
2018-03-29T01:14:03.944Z,99229.93
2018-03-29T01:16:32.706Z,99235.95
2018-03-29T01:19:01.200Z,99230.67
2018-03-29T01:21:29.724Z,99240.30
2018-03-29T01:23:58.223Z,99235.92
2018-03-29T01:26:26.712Z,99234.49
2018-03-29T01:28:55.245Z,99223.36
2018-03-29T01:31:23.777Z,99232.09
2018-03-29T01:33:52.440Z,99233.95
2018-03-29T01:36:20.952Z,99227.48
2018-03-29T01:38:49.437Z,99217.94
2018-03-29T01:41:18.110Z,99227.89
2018-03-29T01:43:46.645Z,99227.23
2018-03-29T01:46:15.284Z,99227.63
2018-03-29T01:48:43.763Z,99223.88
2018-03-29T01:51:12.470Z,99224.42
2018-03-29T01:53:41.112Z,99227.45
2018-03-29T01:56:09.600Z,99229.17
2018-03-29T01:58:38.276Z,99226.16
2018-03-29T02:01:07.208Z,99223.72
2018-03-29T02:03:35.672Z,99228.55
2018-03-29T02:06:04.368Z,99238.22
2018-03-29T02:08:32.844Z,99219.92
2018-03-29T02:11:01.359Z,99240.33
2018-03-29T02:13:29.985Z,99258.65
2018-03-29T02:15:58.703Z,99260.98
2018-03-29T02:18:27.223Z,99277.35
2018-03-29T02:20:55.744Z,99263.89
2018-03-29T02:23:24.326Z,99276.77
2018-03-29T02:25:52.855Z,99272.02
2018-03-29T02:28:21.483Z,99270.84
2018-03-29T02:30:50.182Z,99260.52
2018-03-29T02:33:18.824Z,99263.94
2018-03-29T02:35:47.344Z,99266.27
2018-03-29T02:38:15.884Z,99267.55
2018-03-29T02:40:44.364Z,99264.55
2018-03-29T02:43:13.046Z,99271.61
2018-03-29T02:45:42.596Z,99261.45
2018-03-29T02:48:11.082Z,99276.61
2018-03-29T02:50:39.673Z,99274.70
2018-03-29T02:53:08.317Z,99273.38
2018-03-29T02:55:36.805Z,99275.45
2018-03-29T02:58:05.494Z,99279.41
2018-03-29T03:00:34.027Z,99275.47
2018-03-29T03:03:02.912Z,99283.87
2018-03-29T03:05:31.579Z,99288.09
2018-03-29T03:08:00.219Z,99296.80
2018-03-29T03:10:28.710Z,99302.59
2018-03-29T03:12:57.389Z,99308.56
2018-03-29T03:15:25.900Z,99311.22
2018-03-29T03:17:54.385Z,99308.89
2018-03-29T03:20:22.922Z,99307.83
2018-03-29T03:22:51.397Z,99311.48
2018-03-29T03:25:20.051Z,99319.56
2018-03-29T03:27:48.532Z,99346.48
2018-03-29T03:30:17.209Z,99330.03
2018-03-29T03:32:45.712Z,99340.75
2018-03-29T03:35:14.259Z,99345.20
2018-03-29T03:37:42.840Z,99343.70
2018-03-29T03:40:11.337Z,99348.73
2018-03-29T03:42:40.004Z,99347.92
2018-03-29T03:45:08.718Z,99369.13
2018-03-29T03:47:37.584Z,99360.40
2018-03-29T03:50:06.344Z,99378.23
2018-03-29T03:52:34.812Z,99374.56
2018-03-29T03:55:03.444Z,99378.48
2018-03-29T03:57:32.108Z,99378.69
2018-03-29T04:00:00.781Z,99392.76
2018-03-29T04:03:28.666Z,99389.36
2018-03-29T04:05:57.733Z,99394.66
2018-03-29T04:08:25.988Z,99398.75
2018-03-29T04:10:54.873Z,99403.16
2018-03-29T04:13:23.328Z,99413.63
2018-03-29T04:15:52.081Z,99408.71
2018-03-29T04:18:20.913Z,99419.66
2018-03-29T04:20:49.510Z,99422.98
2018-03-29T04:23:18.316Z,99425.31
2018-03-29T04:25:46.624Z,99437.69
2018-03-29T04:28:14.912Z,99436.66
2018-03-29T04:30:43.324Z,99438.41
2018-03-29T04:33:12.109Z,99441.68
2018-03-29T04:35:40.712Z,99444.80
2018-03-29T04:38:09.200Z,99456.41
2018-03-29T04:40:37.640Z,99461.00
2018-03-29T04:43:06.151Z,99465.09
2018-03-29T04:45:34.640Z,99463.57
2018-03-29T04:48:03.120Z,99485.35
2018-03-29T04:50:31.818Z,99485.41
2018-03-29T04:53:00.470Z,99489.58
2018-03-29T04:55:29.184Z,99495.42
2018-03-29T04:57:57.579Z,99493.42
2018-03-29T05:00:26.307Z,99508.69
2018-03-29T05:02:56.378Z,99510.09
2018-03-29T05:05:25.163Z,99522.27
2018-03-29T05:07:53.986Z,99516.34
2018-03-29T05:10:22.498Z,99529.33
2018-03-29T05:12:50.974Z,99531.52
2018-03-29T05:15:19.292Z,99533.86
2018-03-29T05:17:47.638Z,99545.91
2018-03-29T05:20:16.116Z,99546.13
2018-03-29T05:22:44.873Z,99555.59
2018-03-29T05:25:15.510Z,99559.02
2018-03-29T05:27:48.244Z,99561.81
2018-03-29T05:30:17.480Z,99561.91
2018-03-29T05:32:46.224Z,99567.36
2018-03-29T05:35:15.131Z,99577.36
2018-03-29T05:37:43.946Z,99590.94
2018-03-29T05:40:13.859Z,99589.61
2018-03-29T05:42:42.813Z,99590.43
2018-03-29T05:45:11.779Z,99591.79
2018-03-29T05:47:40.730Z,99597.63
2018-03-29T05:50:09.154Z,99596.58
2018-03-29T05:52:37.581Z,99598.41
2018-03-29T05:55:06.408Z,99598.07
2018-03-29T05:57:35.577Z,99614.02
2018-03-29T06:00:06.833Z,99608.86
2018-03-29T06:02:35.520Z,99612.16
2018-03-29T06:05:04.725Z,99621.77
2018-03-29T06:07:33.513Z,99619.05
2018-03-29T06:10:02.188Z,99620.30
2018-03-29T06:12:30.955Z,99630.16
2018-03-29T06:15:04.310Z,99622.11
2018-03-29T06:17:32.879Z,99622.20
2018-03-29T06:20:01.862Z,99628.25
2018-03-29T06:22:31.253Z,99626.31
2018-03-29T06:24:59.982Z,99634.33
2018-03-29T06:27:28.460Z,99634.87
2018-03-29T06:29:58.839Z,99632.39
2018-03-29T06:32:28.424Z,99638.73
2018-03-29T06:34:57.132Z,99634.70
2018-03-29T06:37:26.965Z,99649.09
2018-03-29T06:39:56.263Z,99640.70
2018-03-29T06:42:25.418Z,99643.05
2018-03-29T06:44:56.610Z,99646.11
2018-03-29T06:47:25.132Z,99658.84
2018-03-29T06:49:53.727Z,99667.30
2018-03-29T06:52:22.113Z,99659.34
2018-03-29T06:54:51.563Z,99668.45
2018-03-29T06:57:20.459Z,99671.81
2018-03-29T06:59:49.103Z,99666.52
2018-03-29T07:02:19.066Z,99682.95
2018-03-29T07:04:48.080Z,99680.87
2018-03-29T07:07:17.568Z,99679.89
2018-03-29T07:09:46.921Z,99693.48
2018-03-29T07:12:16.112Z,99697.42
2018-03-29T07:14:44.592Z,99698.13
2018-03-29T07:17:13.057Z,99701.66
2018-03-29T07:19:42.216Z,99705.19
2018-03-29T07:22:11.720Z,99715.34
2018-03-29T07:24:41.081Z,99713.84
2018-03-29T07:27:10.586Z,99715.08
2018-03-29T07:29:39.543Z,99720.89
2018-03-29T07:32:08.552Z,99710.74
2018-03-29T07:34:38.035Z,99720.44
2018-03-29T07:37:07.620Z,99731.81
2018-03-29T07:39:35.918Z,99725.38
2018-03-29T07:42:04.436Z,99726.78
2018-03-29T07:44:33.255Z,99738.95
2018-03-29T07:47:02.215Z,99736.62
2018-03-29T07:49:30.932Z,99734.40
2018-03-29T07:52:00.308Z,99744.54
2018-03-29T07:54:28.692Z,99748.13
2018-03-29T07:56:57.009Z,99753.07
2018-03-29T07:59:25.528Z,99765.90
2018-03-29T08:01:54.417Z,99763.46
2018-03-29T08:04:22.979Z,99767.89
2018-03-29T08:06:51.410Z,99776.34
2018-03-29T08:09:20.063Z,99793.89
2018-03-29T08:11:48.505Z,99788.46
2018-03-29T08:14:16.803Z,99795.24
2018-03-29T08:16:45.657Z,99807.22
2018-03-29T08:19:14.291Z,99797.97
2018-03-29T08:21:42.829Z,99805.05
2018-03-29T08:24:11.239Z,99802.73
2018-03-29T08:26:39.905Z,99803.78
2018-03-29T08:29:08.581Z,99794.39
2018-03-29T08:31:37.025Z,99807.91
2018-03-29T08:34:05.284Z,99812.44
2018-03-29T08:36:34.096Z,99812.63
2018-03-29T08:39:03.025Z,99823.34
2018-03-29T08:41:31.480Z,99821.70
2018-03-29T08:43:59.794Z,99828.59
2018-03-29T08:46:28.593Z,99828.59
2018-03-29T08:48:57.377Z,99834.85
2018-03-29T08:51:25.770Z,99849.37
2018-03-29T08:53:54.079Z,99845.89
2018-03-29T08:56:24.051Z,99849.24
2018-03-29T08:58:52.612Z,99866.30
2018-03-29T09:01:21.577Z,99851.65
2018-03-29T09:03:50.228Z,99849.37
2018-03-29T09:06:18.980Z,99850.55
2018-03-29T09:08:47.696Z,99856.00
2018-03-29T09:11:16.309Z,99844.67
2018-03-29T09:13:45.105Z,99857.82
2018-03-29T09:16:13.692Z,99843.73
2018-03-29T09:18:42.404Z,99855.59
2018-03-29T09:21:11.179Z,99867.33
2018-03-29T09:23:39.829Z,99859.23
2018-03-29T09:26:08.361Z,99865.14
2018-03-29T09:28:36.737Z,99867.30
2018-03-29T09:31:05.180Z,99878.99
2018-03-29T09:33:34.027Z,99877.54
2018-03-29T09:36:02.680Z,99878.63
2018-03-29T09:38:31.172Z,99885.95
2018-03-29T09:40:59.427Z,99888.20
2018-03-29T09:43:28.304Z,99907.34
2018-03-29T09:45:56.918Z,99897.34
2018-03-29T09:48:25.332Z,99894.59
2018-03-29T09:50:53.800Z,99885.06
2018-03-29T09:53:22.415Z,99885.98
2018-03-29T09:55:51.133Z,99879.31
2018-03-29T09:58:19.840Z,99883.41
2018-03-29T10:00:48.617Z,99893.59
2018-03-29T10:03:21.532Z,99885.70
2018-03-29T10:05:50.063Z,99879.61
2018-03-29T10:08:18.507Z,99880.23
2018-03-29T10:10:46.948Z,99873.09
2018-03-29T10:13:15.377Z,99886.01
2018-03-29T10:15:43.956Z,99876.42
2018-03-29T10:18:12.403Z,99889.16
2018-03-29T10:20:40.913Z,99897.09
2018-03-29T10:23:09.356Z,99921.90
2018-03-29T10:25:38.021Z,99895.84
2018-03-29T10:28:06.555Z,99899.76
2018-03-29T10:30:35.362Z,99900.33
2018-03-29T10:33:04.184Z,99906.80
2018-03-29T10:35:33.004Z,99913.67
2018-03-29T10:38:01.364Z,99921.02
2018-03-29T10:40:29.984Z,99921.03
2018-03-29T10:42:58.353Z,99914.70
2018-03-29T10:45:27.184Z,99916.36
2018-03-29T10:47:56.008Z,99915.00
2018-03-29T10:50:24.951Z,99917.56
2018-03-29T10:52:53.238Z,99923.73
2018-03-29T10:55:22.109Z,99929.13
2018-03-29T10:57:50.829Z,99931.52
2018-03-29T11:00:19.579Z,99927.19
2018-03-29T11:02:48.360Z,99931.75
2018-03-29T11:05:17.082Z,99927.31
2018-03-29T11:07:45.728Z,99934.10
2018-03-29T11:10:14.106Z,99948.30
2018-03-29T11:12:42.618Z,99938.73
2018-03-29T11:15:11.238Z,99943.05
2018-03-29T11:17:39.576Z,99939.94
2018-03-29T11:20:08.151Z,99947.98
2018-03-29T11:22:36.795Z,99962.31
2018-03-29T11:25:05.278Z,99963.09
2018-03-29T11:27:33.649Z,99965.98
2018-03-29T11:30:02.405Z,99958.18
2018-03-29T11:32:30.899Z,99962.81
2018-03-29T11:34:59.620Z,99969.02
2018-03-29T11:37:28.556Z,99967.88
2018-03-29T11:39:57.108Z,99969.09
2018-03-29T11:42:25.568Z,99975.67
2018-03-29T11:44:54.247Z,99973.88
2018-03-29T11:47:22.711Z,99990.06
2018-03-29T11:49:51.132Z,99983.09
2018-03-29T11:52:19.776Z,99973.14
2018-03-29T11:54:48.290Z,99974.84
2018-03-29T11:57:17.228Z,99981.17
2018-03-29T11:59:45.726Z,99987.86
2018-03-29T12:02:14.589Z,99989.25
2018-03-29T12:04:43.018Z,99980.81
2018-03-29T12:07:11.645Z,99973.58
2018-03-29T12:09:39.998Z,99984.46
2018-03-29T12:12:08.910Z,99987.80
2018-03-29T12:14:37.520Z,99984.91
2018-03-29T12:17:05.864Z,99987.14
2018-03-29T12:19:34.425Z,100003.77
2018-03-29T12:22:03.196Z,99993.00
2018-03-29T12:24:31.647Z,99992.27
2018-03-29T12:27:00.124Z,100006.54
2018-03-29T12:29:28.838Z,99994.81
2018-03-29T12:31:57.573Z,99993.33
2018-03-29T12:34:26.175Z,100010.03
2018-03-29T12:36:54.587Z,100010.94
2018-03-29T12:39:23.575Z,100018.89
2018-03-29T12:41:52.545Z,100013.14
2018-03-29T12:44:20.917Z,100018.20
2018-03-29T12:46:49.553Z,100018.27
2018-03-29T12:49:18.176Z,100021.64
2018-03-29T12:51:46.839Z,100012.59
2018-03-29T12:54:15.673Z,100012.97
2018-03-29T12:56:53.099Z,100014.22
2018-03-29T12:59:21.653Z,100011.48
2018-03-29T13:01:50.204Z,100025.28
2018-03-29T13:04:19.023Z,100016.96
2018-03-29T13:06:47.769Z,100013.44
2018-03-29T13:09:16.427Z,100011.10
2018-03-29T13:11:45.353Z,100018.19
2018-03-29T13:14:14.264Z,100012.31
2018-03-29T13:16:42.696Z,100021.83
2018-03-29T13:19:11.437Z,100027.06
2018-03-29T13:21:39.825Z,100025.84
2018-03-29T13:24:08.369Z,100027.01
2018-03-29T13:26:37.012Z,100020.34
2018-03-29T13:29:05.498Z,100027.94
2018-03-29T13:31:33.920Z,100023.48
2018-03-29T13:34:02.432Z,100032.16
2018-03-29T13:36:30.802Z,100029.45
2018-03-29T13:38:59.231Z,100025.28
2018-03-29T13:41:27.681Z,100017.57
2018-03-29T13:43:56.188Z,100021.88
2018-03-29T13:46:24.702Z,100023.84
2018-03-29T13:48:53.377Z,100021.88
2018-03-29T13:51:21.998Z,100026.98
2018-03-29T13:53:50.812Z,100010.55
2018-03-29T13:56:19.668Z,100014.88
2018-03-29T13:58:48.100Z,100017.56
2018-03-29T14:01:16.562Z,100027.90
2018-03-29T14:03:45.337Z,100034.17
2018-03-29T14:06:13.779Z,100027.37
2018-03-29T14:08:42.469Z,100028.84
2018-03-29T14:11:10.927Z,100031.42
2018-03-29T14:13:39.850Z,100031.62
2018-03-29T14:16:08.480Z,100026.01
2018-03-29T14:18:36.872Z,100031.11
2018-03-29T14:21:05.475Z,100026.45
2018-03-29T14:23:34.404Z,100029.72
2018-03-29T14:26:02.674Z,100038.22
2018-03-29T14:28:31.430Z,100024.53
2018-03-29T14:31:00.532Z,100024.50
2018-03-29T14:33:29.032Z,100043.14
2018-03-29T14:35:57.759Z,100032.31
2018-03-29T14:38:26.405Z,100014.98
2018-03-29T14:40:54.967Z,100020.90
2018-03-29T14:43:24.013Z,100016.92
2018-03-29T14:45:52.536Z,100014.34
2018-03-29T14:48:21.253Z,100013.00
2018-03-29T14:50:50.081Z,100016.96
2018-03-29T14:53:18.773Z,100009.28
2018-03-29T14:55:47.353Z,100010.95
2018-03-29T14:58:15.744Z,100016.93
2018-03-29T15:00:44.158Z,100018.33
2018-03-29T15:03:14.848Z,100015.20
2018-03-29T15:05:43.569Z,100018.51
2018-03-29T15:08:12.417Z,100023.27
2018-03-29T15:10:40.928Z,100021.32
2018-03-29T15:13:09.485Z,100015.93
2018-03-29T15:15:38.211Z,100020.98
2018-03-29T15:18:07.045Z,100026.17
2018-03-29T15:20:35.353Z,100023.44
2018-03-29T15:23:04.497Z,100022.00
2018-03-29T15:25:33.667Z,100020.03
2018-03-29T15:28:02.326Z,100024.74
2018-03-29T15:30:30.671Z,100022.27
2018-03-29T15:32:59.406Z,100019.29
2018-03-29T15:35:27.988Z,100013.87
2018-03-29T15:37:56.679Z,100019.50
2018-03-29T15:40:25.240Z,100018.18
2018-03-29T15:42:53.683Z,100016.42
2018-03-29T15:45:22.432Z,100027.57
2018-03-29T15:47:50.847Z,100028.84
2018-03-29T15:50:19.467Z,100025.23
2018-03-29T15:52:47.836Z,100023.23
2018-03-29T15:55:16.768Z,100028.68
2018-03-29T15:57:45.111Z,100035.98
2018-03-29T16:00:13.531Z,100034.44
2018-03-29T16:02:42.184Z,100039.66
2018-03-29T16:05:10.619Z,100039.94
2018-03-29T16:07:39.097Z,100047.55
2018-03-29T16:10:08.024Z,100033.64
2018-03-29T16:12:36.778Z,100039.56
2018-03-29T16:15:05.184Z,100041.49
2018-03-29T16:17:33.543Z,100050.06
2018-03-29T16:20:02.149Z,100049.52
2018-03-29T16:22:30.908Z,100053.02
2018-03-29T16:24:59.268Z,100059.40
2018-03-29T16:27:28.255Z,100056.16
2018-03-29T16:29:56.627Z,100065.45
2018-03-29T16:32:25.002Z,100056.31
2018-03-29T16:34:53.422Z,100057.74
2018-03-29T16:37:21.949Z,100058.97
2018-03-29T16:39:50.527Z,100063.28
2018-03-29T16:42:19.021Z,100068.48
2018-03-29T16:44:47.351Z,100064.59
2018-03-29T16:47:16.160Z,100069.28
2018-03-29T16:49:44.945Z,100069.73
2018-03-29T16:52:13.889Z,100076.50
2018-03-29T16:54:42.535Z,100081.47
2018-03-29T16:57:11.006Z,100080.31
2018-03-29T16:59:39.472Z,100081.47
2018-03-29T17:02:08.206Z,100087.78
2018-03-29T17:04:36.819Z,100090.63
2018-03-29T17:07:05.316Z,100089.74
2018-03-29T17:09:33.984Z,100100.65
2018-03-29T17:12:02.509Z,100108.16
2018-03-29T17:14:31.011Z,100107.00
2018-03-29T17:16:59.700Z,100109.04
2018-03-29T17:19:28.184Z,100130.05
2018-03-29T17:21:56.832Z,100145.80
2018-03-29T17:24:25.248Z,100160.97
2018-03-29T17:26:53.790Z,100166.59
2018-03-29T17:29:22.179Z,100162.31
2018-03-29T17:31:51.024Z,100175.36
2018-03-29T17:34:20.095Z,100173.27
2018-03-29T17:36:48.635Z,100165.14
2018-03-29T17:39:16.955Z,100157.55
2018-03-29T17:41:45.526Z,100164.61
2018-03-29T17:44:14.084Z,100161.45
2018-03-29T17:46:42.746Z,100177.78
2018-03-29T17:49:11.257Z,100181.06
2018-03-29T17:51:40.008Z,100175.77
2018-03-29T17:54:08.840Z,100187.02
2018-03-29T17:56:37.732Z,100193.56
2018-03-29T17:59:06.153Z,100189.22
2018-03-29T18:01:34.734Z,100182.67
2018-03-29T18:04:03.116Z,100187.83
2018-03-29T18:06:32.000Z,100186.39
2018-03-29T18:09:00.621Z,100192.64
2018-03-29T18:11:28.904Z,100202.05
2018-03-29T18:13:57.733Z,100204.23
2018-03-29T18:16:26.725Z,100208.72
2018-03-29T18:18:55.252Z,100202.05
2018-03-29T18:21:24.049Z,100204.20
2018-03-29T18:23:52.685Z,100209.42
2018-03-29T18:26:21.653Z,100207.09
2018-03-29T18:28:50.233Z,100214.70
2018-03-29T18:31:20.942Z,100210.89
2018-03-29T18:33:49.592Z,100213.07
2018-03-29T18:36:18.379Z,100214.16
2018-03-29T18:38:47.184Z,100221.11
2018-03-29T18:41:16.341Z,100223.29
2018-03-29T18:43:44.772Z,100232.39
2018-03-29T18:46:13.651Z,100235.09
2018-03-29T18:48:44.441Z,100245.39
2018-03-29T18:51:17.152Z,100249.11
2018-03-29T18:53:47.943Z,100246.52
2018-03-29T18:56:18.383Z,100248.27
2018-03-29T18:58:46.870Z,100254.25
2018-03-29T19:01:15.647Z,100256.68
2018-03-29T19:03:45.716Z,100262.44
2018-03-29T19:06:14.432Z,100264.06
2018-03-29T19:08:43.663Z,100263.38
2018-03-29T19:11:12.391Z,100271.64
2018-03-29T19:13:41.177Z,100273.37
2018-03-29T19:16:09.856Z,100275.13
2018-03-29T19:18:38.389Z,100278.06
2018-03-29T19:21:07.308Z,100280.51
2018-03-29T19:23:35.749Z,100279.59
2018-03-29T19:26:04.732Z,100277.98
2018-03-29T19:28:33.138Z,100285.58
2018-03-29T19:31:01.924Z,100278.09
2018-03-29T19:33:30.536Z,100279.17
2018-03-29T19:35:58.992Z,100278.34
2018-03-29T19:38:27.455Z,100286.08
2018-03-29T19:40:56.152Z,100277.91
2018-03-29T19:43:24.797Z,100281.98
2018-03-29T19:45:53.351Z,100285.97
2018-03-29T19:48:21.920Z,100290.70
2018-03-29T19:50:50.507Z,100294.88
2018-03-29T19:53:19.226Z,100289.47
2018-03-29T19:55:47.868Z,100301.20
2018-03-29T19:58:16.253Z,100296.81
2018-03-29T20:00:45.054Z,100294.25
2018-03-29T20:03:14.238Z,100299.72
2018-03-29T20:05:43.426Z,100306.86
2018-03-29T20:08:11.945Z,100308.14
2018-03-29T20:10:40.391Z,100316.65
2018-03-29T20:13:09.013Z,100316.28
2018-03-29T20:15:37.524Z,100312.38
2018-03-29T20:18:07.304Z,100317.58
2018-03-29T20:20:37.550Z,100319.85
2018-03-29T20:23:06.162Z,100318.54
2018-03-29T20:25:35.403Z,100323.31
2018-03-29T20:28:03.991Z,100322.16
2018-03-29T20:30:32.810Z,100316.11
2018-03-29T20:33:01.895Z,100315.78
2018-03-29T20:35:31.171Z,100322.52
2018-03-29T20:37:59.837Z,100323.68
2018-03-29T20:40:28.783Z,100329.09
2018-03-29T20:42:57.557Z,100333.08
2018-03-29T20:45:25.870Z,100337.77
2018-03-29T20:47:54.481Z,100334.09
2018-03-29T20:50:23.644Z,100330.12
2018-03-29T20:52:52.092Z,100339.53
2018-03-29T20:55:20.576Z,100343.61
2018-03-29T20:57:49.124Z,100353.45
2018-03-29T21:00:17.582Z,100352.52
2018-03-29T21:02:46.072Z,100355.16
2018-03-29T21:05:14.533Z,100347.23
2018-03-29T21:07:43.125Z,100352.50
2018-03-29T21:10:11.784Z,100352.63
2018-03-29T21:12:40.159Z,100357.05
2018-03-29T21:15:08.689Z,100360.75
2018-03-29T21:17:37.074Z,100364.61
2018-03-29T21:20:05.600Z,100364.79
2018-03-29T21:22:34.281Z,100367.25
2018-03-29T21:25:02.768Z,100364.81
2018-03-29T21:27:31.145Z,100371.28
2018-03-29T21:29:59.554Z,100368.20
2018-03-29T21:32:28.020Z,100369.80
2018-03-29T21:34:56.377Z,100377.56
2018-03-29T21:37:25.984Z,100379.70
2018-03-29T21:39:54.462Z,100373.27
2018-03-29T21:42:22.938Z,100377.42
2018-03-29T21:44:51.472Z,100374.90
2018-03-29T21:47:19.904Z,100375.34
2018-03-29T21:49:48.641Z,100377.36
2018-03-29T21:52:17.514Z,100379.52
2018-03-29T21:54:46.299Z,100381.70
2018-03-29T21:57:15.139Z,100382.88
2018-03-29T21:59:43.933Z,100377.53
2018-03-29T22:02:12.660Z,100376.16
2018-03-29T22:04:41.303Z,100380.27
2018-03-29T22:07:10.113Z,100379.88
2018-03-29T22:09:38.476Z,100379.89
2018-03-29T22:12:07.033Z,100392.70
2018-03-29T22:14:36.086Z,100395.10
2018-03-29T22:17:04.833Z,100396.92
2018-03-29T22:19:33.720Z,100394.98
2018-03-29T22:22:02.005Z,100402.22
2018-03-29T22:24:30.825Z,100398.93
2018-03-29T22:26:59.401Z,100401.99
2018-03-29T22:29:27.852Z,100408.52
2018-03-29T22:31:56.155Z,100408.81
2018-03-29T22:34:24.489Z,100410.00
2018-03-29T22:36:53.028Z,100414.16
2018-03-29T22:39:21.332Z,100409.86
2018-03-29T22:41:50.203Z,100407.80
2018-03-29T22:44:18.639Z,100413.63
2018-03-29T22:46:47.281Z,100417.56
2018-03-29T22:49:15.594Z,100422.40
2018-03-29T22:51:44.170Z,100414.14
2018-03-29T22:54:13.039Z,100417.38
2018-03-29T22:56:41.418Z,100420.83
2018-03-29T22:59:10.457Z,100416.53
2018-03-29T23:01:39.292Z,100412.36
2018-03-29T23:04:08.149Z,100405.53
2018-03-29T23:06:37.088Z,100406.41
2018-03-29T23:09:06.141Z,100405.70
2018-03-29T23:11:34.534Z,100409.80
2018-03-29T23:14:02.969Z,100410.17
2018-03-29T23:16:31.996Z,100411.23
2018-03-29T23:19:00.665Z,100411.92
2018-03-29T23:21:29.008Z,100416.72
2018-03-29T23:23:57.468Z,100414.84
2018-03-29T23:26:25.865Z,100414.78
2018-03-29T23:28:54.524Z,100413.40
2018-03-29T23:31:22.915Z,100418.88
2018-03-29T23:33:51.340Z,100420.83
2018-03-29T23:36:20.109Z,100425.15
2018-03-29T23:38:49.182Z,100427.14
2018-03-29T23:41:17.990Z,100427.86
2018-03-29T23:43:46.935Z,100434.27
2018-03-29T23:46:15.629Z,100439.09
2018-03-29T23:48:44.534Z,100434.68
2018-03-29T23:51:13.270Z,100431.94
2018-03-29T23:53:41.650Z,100435.56
2018-03-29T23:56:10.177Z,100439.50
2018-03-29T23:58:38.824Z,100434.36
